< < Back
Terminal Aerodrome Forecast


Current Version              Previous Versions:   1  2  3  4  5  6  7  8  9  

Terminal Aerodrome Forecast

967
FTUS42 KTAE 241720
TAFVLD
TAF
KVLD 241720Z 2418/2518 12003KT P6SM SCT050
     FM251000 00000KT 5SM BR SCT009 BKN012
     FM251400 07003KT P6SM SCT250=

Latest METAR

322
SAUS70 KWBC 251400 RRC
MTRVLD
METAR KVLD 251353Z 09003KT 10SM CLR 27/24 A3006 RMK AO2 SLP186
T02720239


USA.gov is the U.S. government's official web portal to all federal, state and local government web resources and services.